createdAt,value
2023-03-27T00:00:46.321Z,96130.53
2023-03-27T00:03:50.337Z,96117.00
2023-03-27T00:06:55.216Z,96122.34
2023-03-27T00:09:57.670Z,96095.28
2023-03-27T00:12:59.833Z,96124.72
2023-03-27T00:16:03.047Z,96120.50
2023-03-27T00:19:06.310Z,96110.16
2023-03-27T00:22:08.310Z,96128.50
2023-03-27T00:25:11.757Z,96124.78
2023-03-27T00:28:14.162Z,96121.88
2023-03-27T00:31:17.589Z,96126.34
2023-03-27T00:34:19.672Z,96121.56
2023-03-27T00:37:22.386Z,96125.84
2023-03-27T00:40:24.505Z,96116.00
2023-03-27T00:43:28.429Z,96116.28
2023-03-27T00:46:42.456Z,96114.44
2023-03-27T00:49:45.115Z,96120.81
2023-03-27T00:52:51.545Z,96121.34
2023-03-27T00:55:56.767Z,96126.41
2023-03-27T00:59:05.541Z,96119.72
2023-03-27T01:02:08.993Z,96131.13
2023-03-27T01:05:12.851Z,96135.91
2023-03-27T01:08:16.664Z,96126.09
2023-03-27T01:11:47.049Z,96126.88
2023-03-27T01:14:57.844Z,96135.91
2023-03-27T01:18:45.129Z,96117.56
2023-03-27T01:22:09.720Z,96122.81
2023-03-27T01:25:49.323Z,96115.66
2023-03-27T01:29:03.358Z,96121.44
2023-03-27T01:32:26.323Z,96122.03
2023-03-27T01:35:37.392Z,96103.91
2023-03-27T01:38:42.506Z,96111.31
2023-03-27T01:42:06.556Z,96114.97
2023-03-27T01:45:40.358Z,96089.56
2023-03-27T01:48:48.636Z,96106.19
2023-03-27T01:51:58.739Z,96103.78
2023-03-27T01:55:05.345Z,96113.38
2023-03-27T01:58:17.009Z,96108.00
2023-03-27T02:01:24.165Z,96114.31
2023-03-27T02:04:36.037Z,96116.19
2023-03-27T02:07:45.159Z,96089.66
2023-03-27T02:10:53.694Z,96103.97
2023-03-27T02:14:00.621Z,96100.44
2023-03-27T02:17:10.429Z,96092.59
2023-03-27T02:20:16.503Z,96055.38
2023-03-27T02:23:18.614Z,96067.63
2023-03-27T02:26:20.740Z,96077.91
2023-03-27T02:30:04.239Z,96075.72
2023-03-27T02:33:38.136Z,96053.66
2023-03-27T02:36:57.295Z,96066.94
2023-03-27T02:40:39.755Z,96069.59
2023-03-27T02:44:11.088Z,96061.34
2023-03-27T02:47:52.909Z,96058.59
2023-03-27T02:51:13.688Z,96053.16
2023-03-27T02:54:19.584Z,96054.69
2023-03-27T02:57:26.905Z,96053.66
2023-03-27T03:00:50.994Z,96046.97
2023-03-27T03:04:57.249Z,96051.94
2023-03-27T03:08:05.898Z,96001.28
2023-03-27T03:11:12.184Z,96041.88
2023-03-27T03:14:15.286Z,96045.06
2023-03-27T03:17:17.610Z,96027.09
2023-03-27T03:20:21.700Z,96041.69
2023-03-27T03:23:24.419Z,96034.00
2023-03-27T03:26:27.358Z,96055.53
2023-03-27T03:29:30.188Z,96011.63
2023-03-27T03:32:44.671Z,96059.00
2023-03-27T03:35:50.797Z,96069.84
2023-03-27T03:39:04.113Z,96062.63
2023-03-27T03:42:06.571Z,96068.75
2023-03-27T03:45:09.294Z,96072.44
2023-03-27T03:48:11.682Z,96064.25
2023-03-27T03:51:13.670Z,96064.97
2023-03-27T03:54:15.662Z,96070.94
2023-03-27T03:57:19.588Z,96066.56
2023-03-27T04:00:39.759Z,96079.50
2023-03-27T04:03:49.111Z,96080.50
2023-03-27T04:06:53.175Z,96091.34
2023-03-27T04:09:55.464Z,96096.41
2023-03-27T04:13:02.672Z,96097.50
2023-03-27T04:16:08.265Z,96092.59
2023-03-27T04:19:14.590Z,96060.16
2023-03-27T04:22:17.813Z,96098.59
2023-03-27T04:25:22.583Z,96081.84
2023-03-27T04:28:24.696Z,96104.66
2023-03-27T04:31:41.128Z,96107.78
2023-03-27T04:35:12.740Z,96088.50
2023-03-27T04:38:26.482Z,96105.59
2023-03-27T04:41:31.065Z,96106.13
2023-03-27T04:44:35.088Z,96111.56
2023-03-27T04:47:38.296Z,96110.56
2023-03-27T04:50:44.393Z,96106.81
2023-03-27T04:53:49.495Z,96121.19
2023-03-27T04:56:51.597Z,96116.56
2023-03-27T04:59:53.729Z,96130.03
2023-03-27T05:03:24.001Z,96124.75
2023-03-27T05:06:33.178Z,96137.31
2023-03-27T05:09:36.636Z,96141.00
2023-03-27T05:12:47.413Z,96152.28
2023-03-27T05:15:51.036Z,96137.91
2023-03-27T05:18:56.230Z,96156.88
2023-03-27T05:21:58.278Z,96157.56
2023-03-27T05:25:01.779Z,96160.63
2023-03-27T05:28:03.992Z,96162.09
2023-03-27T05:31:10.990Z,96159.50
2023-03-27T05:34:24.553Z,96170.19
2023-03-27T05:37:29.331Z,96170.41
2023-03-27T05:40:52.427Z,96173.03
2023-03-27T05:43:54.679Z,96149.84
2023-03-27T05:46:56.900Z,96184.09
2023-03-27T05:50:03.199Z,96183.25
2023-03-27T05:53:10.297Z,96201.63
2023-03-27T05:56:17.480Z,96192.81
2023-03-27T05:59:39.812Z,96194.97
2023-03-27T06:02:57.391Z,96204.06
2023-03-27T06:06:12.803Z,96210.59
2023-03-27T06:09:18.039Z,96201.44
2023-03-27T06:12:37.326Z,96215.25
2023-03-27T06:15:54.432Z,96188.97
2023-03-27T06:19:21.222Z,96220.44
2023-03-27T06:22:27.046Z,96217.22
2023-03-27T06:25:34.722Z,96215.41
2023-03-27T06:28:39.382Z,96229.00
2023-03-27T06:31:41.509Z,96214.56
2023-03-27T06:34:50.308Z,96228.75
2023-03-27T06:38:13.025Z,96230.00
2023-03-27T06:41:15.184Z,96223.31
2023-03-27T06:44:40.094Z,96241.97
2023-03-27T06:48:13.825Z,96250.50
2023-03-27T06:51:23.303Z,96248.25
2023-03-27T06:54:27.212Z,96235.28
2023-03-27T06:57:30.248Z,96247.06
2023-03-27T07:00:37.503Z,96233.06
2023-03-27T07:04:02.516Z,96267.59
2023-03-27T07:07:28.341Z,96253.34
2023-03-27T07:10:31.984Z,96254.72
2023-03-27T07:13:36.216Z,96266.28
2023-03-27T07:16:41.617Z,96235.34
2023-03-27T07:19:44.236Z,96252.69
2023-03-27T07:22:47.851Z,96280.38
2023-03-27T07:26:22.230Z,96271.38
2023-03-27T07:29:37.324Z,96268.53
2023-03-27T07:32:41.936Z,96280.28
2023-03-27T07:35:45.953Z,96270.84
2023-03-27T07:39:14.328Z,96286.72
2023-03-27T07:42:16.345Z,96295.59
2023-03-27T07:45:39.339Z,96298.44
2023-03-27T07:48:41.490Z,96293.50
2023-03-27T07:51:50.245Z,96308.38
2023-03-27T07:54:52.635Z,96265.50
2023-03-27T07:58:02.223Z,96302.38
2023-03-27T08:01:07.935Z,96291.59
2023-03-27T08:04:11.256Z,96314.59
2023-03-27T08:07:16.040Z,96316.38
2023-03-27T08:10:18.641Z,96310.09
2023-03-27T08:13:30.696Z,96318.34
2023-03-27T08:16:38.035Z,96324.91
2023-03-27T08:19:40.208Z,96326.50
2023-03-27T08:22:42.339Z,96324.13
2023-03-27T08:26:10.786Z,96320.16
2023-03-27T08:29:26.436Z,96335.91
2023-03-27T08:32:28.745Z,96343.97
2023-03-27T08:35:31.814Z,96345.53
2023-03-27T08:38:34.609Z,96352.53
2023-03-27T08:41:52.659Z,96354.88
2023-03-27T08:45:08.711Z,96339.84
2023-03-27T08:48:22.201Z,96367.19
2023-03-27T08:51:29.922Z,96367.00
2023-03-27T08:54:34.541Z,96372.03
2023-03-27T08:57:37.654Z,96374.44
2023-03-27T09:01:16.981Z,96375.91
2023-03-27T09:04:41.317Z,96361.75
2023-03-27T09:07:55.666Z,96415.00
2023-03-27T09:11:24.810Z,96422.38
2023-03-27T09:14:41.324Z,96416.19
2023-03-27T09:18:02.997Z,96439.06
2023-03-27T09:21:40.140Z,96459.44
2023-03-27T09:24:52.118Z,96432.06
2023-03-27T09:28:38.785Z,96467.94
2023-03-27T09:31:52.293Z,96480.47
2023-03-27T09:34:55.550Z,96493.56
2023-03-27T09:38:04.133Z,96507.88
2023-03-27T09:41:16.492Z,96499.66
2023-03-27T09:44:27.036Z,96530.84
2023-03-27T09:47:46.886Z,96534.19
2023-03-27T09:50:49.505Z,96536.25
2023-03-27T09:54:17.962Z,96554.88
2023-03-27T09:57:21.283Z,96560.59
2023-03-27T10:00:33.769Z,96565.41
2023-03-27T10:03:49.446Z,96580.72
2023-03-27T10:07:15.723Z,96583.88
2023-03-27T10:10:45.342Z,96611.53
2023-03-27T10:14:16.474Z,96600.75
2023-03-27T10:17:29.897Z,96642.50
2023-03-27T10:20:50.875Z,96659.41
2023-03-27T10:24:01.102Z,96654.19
2023-03-27T10:27:31.493Z,96666.53
2023-03-27T10:31:32.239Z,96665.72
2023-03-27T10:34:58.984Z,96697.47
2023-03-27T10:38:23.180Z,96722.91
2023-03-27T10:41:48.294Z,96717.03
2023-03-27T10:44:54.663Z,96745.13
2023-03-27T10:48:01.969Z,96742.03
2023-03-27T10:51:43.408Z,96767.31
2023-03-27T10:55:25.527Z,96771.41
2023-03-27T10:58:35.493Z,96762.44
2023-03-27T11:01:46.928Z,96771.31
2023-03-27T11:04:58.326Z,96814.44
2023-03-27T11:08:21.896Z,96834.22
2023-03-27T11:11:31.371Z,96852.75
2023-03-27T11:14:55.763Z,96849.13
2023-03-27T11:18:14.469Z,96851.16
2023-03-27T11:21:55.200Z,96861.84
2023-03-27T11:25:07.979Z,96875.53
2023-03-27T11:28:10.120Z,96888.66
2023-03-27T11:31:34.385Z,96886.44
2023-03-27T11:34:48.436Z,96910.47
2023-03-27T11:38:41.447Z,96906.81
2023-03-27T11:41:51.307Z,96910.47
2023-03-27T11:44:54.870Z,96919.75
2023-03-27T11:48:36.078Z,96924.41
2023-03-27T11:52:16.584Z,96954.69
2023-03-27T11:55:31.252Z,96941.75
2023-03-27T11:59:12.614Z,96945.00
2023-03-27T12:02:50.787Z,96965.94
2023-03-27T12:06:07.073Z,96938.31
2023-03-27T12:09:25.604Z,96965.19
2023-03-27T12:12:59.329Z,96970.25
2023-03-27T12:16:43.243Z,96958.94
2023-03-27T12:19:55.963Z,96960.13
2023-03-27T12:23:15.953Z,96969.47
2023-03-27T12:27:23.667Z,96974.69
2023-03-27T12:30:47.675Z,96981.16
2023-03-27T12:34:06.869Z,96998.06
2023-03-27T12:37:13.702Z,97004.88
2023-03-27T12:40:41.444Z,97010.75
2023-03-27T12:43:49.045Z,97019.50
2023-03-27T12:47:22.124Z,97015.56
2023-03-27T12:50:30.397Z,97008.81
2023-03-27T12:53:37.364Z,97015.31
2023-03-27T12:56:52.455Z,97022.22
2023-03-27T12:59:59.316Z,96984.94
2023-03-27T13:03:48.810Z,97025.41
2023-03-27T13:07:05.397Z,97028.81
2023-03-27T13:10:28.631Z,97023.50
2023-03-27T13:13:52.581Z,97024.09
2023-03-27T13:17:13.509Z,97023.69
2023-03-27T13:20:46.496Z,97023.63
2023-03-27T13:24:17.022Z,97030.16
2023-03-27T13:27:36.919Z,97043.34
2023-03-27T13:30:47.439Z,97043.34
2023-03-27T13:34:28.656Z,97049.75
2023-03-27T13:37:38.188Z,97047.78
2023-03-27T13:40:45.037Z,97044.50
2023-03-27T13:43:55.886Z,97046.59
2023-03-27T13:47:30.619Z,97060.69
2023-03-27T13:51:06.704Z,97051.19
2023-03-27T13:54:22.939Z,97049.81
2023-03-27T13:57:47.139Z,97057.75
2023-03-27T14:01:00.938Z,97081.38
2023-03-27T14:04:18.874Z,97069.72
2023-03-27T14:07:48.938Z,97071.31
2023-03-27T14:11:09.150Z,97060.00
2023-03-27T14:14:37.436Z,97087.84
2023-03-27T14:18:04.791Z,97076.00
2023-03-27T14:21:12.698Z,97100.91
2023-03-27T14:24:35.934Z,97074.56
2023-03-27T14:27:55.208Z,97089.03
2023-03-27T14:31:06.293Z,97136.34
2023-03-27T14:34:33.295Z,97112.25
2023-03-27T14:38:05.892Z,97151.81
2023-03-27T14:41:26.814Z,97130.97
2023-03-27T14:44:33.492Z,97150.41
2023-03-27T14:47:41.015Z,97145.09
2023-03-27T14:50:46.560Z,97147.44
2023-03-27T14:53:52.415Z,97158.38
2023-03-27T14:57:18.114Z,97138.75
2023-03-27T15:00:34.543Z,97160.59
2023-03-27T15:03:39.161Z,97168.19
2023-03-27T15:06:42.404Z,97154.44
2023-03-27T15:09:46.773Z,97182.75
2023-03-27T15:13:12.156Z,97174.41
2023-03-27T15:16:27.266Z,97195.84
2023-03-27T15:19:35.156Z,97221.34
2023-03-27T15:22:44.726Z,97223.38
2023-03-27T15:25:54.513Z,97214.91
2023-03-27T15:29:20.474Z,97212.09
2023-03-27T15:32:22.735Z,97228.22
2023-03-27T15:35:48.500Z,97220.19
2023-03-27T15:38:51.358Z,97205.75
2023-03-27T15:42:02.883Z,97216.88
2023-03-27T15:45:05.895Z,97229.06
2023-03-27T15:48:20.988Z,97264.66
2023-03-27T15:51:23.170Z,97255.94
2023-03-27T15:54:34.502Z,97270.84
2023-03-27T15:57:36.590Z,97268.41
2023-03-27T16:00:47.592Z,97275.25
2023-03-27T16:03:51.543Z,97276.66
2023-03-27T16:07:06.502Z,97257.31
2023-03-27T16:10:10.614Z,97295.97
2023-03-27T16:13:27.585Z,97258.94
2023-03-27T16:16:34.355Z,97287.38
2023-03-27T16:19:56.817Z,97304.53
2023-03-27T16:22:59.337Z,97286.75
2023-03-27T16:26:04.139Z,97314.88
2023-03-27T16:29:08.370Z,97335.56
2023-03-27T16:32:14.028Z,97324.03
2023-03-27T16:35:16.982Z,97347.38
2023-03-27T16:38:19.250Z,97351.63
2023-03-27T16:41:22.552Z,97351.69
2023-03-27T16:44:24.868Z,97352.75
2023-03-27T16:47:26.981Z,97363.09
2023-03-27T16:50:31.328Z,97373.81
2023-03-27T16:53:33.869Z,97366.72
2023-03-27T16:56:36.678Z,97365.09
2023-03-27T16:59:38.926Z,97375.47
2023-03-27T17:02:44.764Z,97380.13
2023-03-27T17:05:47.494Z,97385.59
2023-03-27T17:08:55.612Z,97405.00
2023-03-27T17:11:58.409Z,97371.94
2023-03-27T17:15:00.930Z,97406.41
2023-03-27T17:18:08.054Z,97394.75
2023-03-27T17:21:10.140Z,97415.13
2023-03-27T17:24:14.901Z,97437.81
2023-03-27T17:27:18.844Z,97456.41
2023-03-27T17:30:34.664Z,97447.13
2023-03-27T17:33:41.144Z,97450.16
2023-03-27T17:36:49.762Z,97458.25
2023-03-27T17:39:56.635Z,97462.69
2023-03-27T17:42:59.061Z,97472.41
2023-03-27T17:46:08.602Z,97476.22
2023-03-27T17:49:12.843Z,97449.63
2023-03-27T17:52:16.457Z,97456.13
2023-03-27T17:55:19.249Z,97495.66
2023-03-27T17:58:27.301Z,97507.66
2023-03-27T18:01:30.845Z,97510.50
2023-03-27T18:04:33.815Z,97519.56
2023-03-27T18:07:37.821Z,97517.25
2023-03-27T18:10:49.742Z,97535.66
2023-03-27T18:13:53.604Z,97536.41
2023-03-27T18:16:57.773Z,97543.44
2023-03-27T18:20:00.479Z,97544.41
2023-03-27T18:23:03.664Z,97550.59
2023-03-27T18:26:07.678Z,97550.84
2023-03-27T18:29:11.232Z,97554.91
2023-03-27T18:32:14.478Z,97549.22
2023-03-27T18:35:20.494Z,97557.94
2023-03-27T18:38:27.910Z,97576.69
2023-03-27T18:41:41.225Z,97572.94
2023-03-27T18:44:44.122Z,97584.69
2023-03-27T18:47:47.016Z,97581.66
2023-03-27T18:51:01.841Z,97587.22
2023-03-27T18:54:05.407Z,97591.78
2023-03-27T18:57:08.989Z,97601.16
2023-03-27T19:00:18.860Z,97583.88
2023-03-27T19:03:25.549Z,97600.91
2023-03-27T19:06:29.046Z,97609.78
2023-03-27T19:09:40.860Z,97610.16
2023-03-27T19:12:44.785Z,97618.66
2023-03-27T19:16:14.903Z,97624.16
2023-03-27T19:19:48.733Z,97608.88
2023-03-27T19:23:10.681Z,97616.16
2023-03-27T19:26:19.976Z,97558.75
2023-03-27T19:29:24.626Z,97617.28
2023-03-27T19:32:28.005Z,97623.84
2023-03-27T19:35:31.974Z,97611.31
2023-03-27T19:38:35.318Z,97613.44
2023-03-27T19:41:38.114Z,97619.88
2023-03-27T19:44:42.304Z,97620.44
2023-03-27T19:47:46.658Z,97608.63
2023-03-27T19:50:57.119Z,97622.53
2023-03-27T19:54:00.315Z,97628.53
2023-03-27T19:57:03.636Z,97621.25
2023-03-27T20:00:13.262Z,97621.72
2023-03-27T20:03:20.416Z,97607.88
2023-03-27T20:06:26.609Z,97626.38
2023-03-27T20:09:30.132Z,97624.41
2023-03-27T20:12:33.366Z,97618.94
2023-03-27T20:15:38.820Z,97618.41
2023-03-27T20:18:43.439Z,97631.44
2023-03-27T20:21:46.642Z,97634.81
2023-03-27T20:24:53.897Z,97625.13
2023-03-27T20:27:57.129Z,97611.16
2023-03-27T20:31:05.819Z,97625.56
2023-03-27T20:34:09.451Z,97605.56
2023-03-27T20:37:14.691Z,97617.31
2023-03-27T20:40:18.677Z,97630.94
2023-03-27T20:43:23.148Z,97627.88
2023-03-27T20:46:30.568Z,97626.47
2023-03-27T20:49:40.737Z,97643.94
2023-03-27T20:52:46.866Z,97653.63
2023-03-27T20:55:59.272Z,97648.63
2023-03-27T20:59:02.134Z,97654.28
2023-03-27T21:02:04.361Z,97652.34
2023-03-27T21:05:06.591Z,97661.94
2023-03-27T21:08:08.970Z,97658.88
2023-03-27T21:11:11.726Z,97651.97
2023-03-27T21:14:13.880Z,97649.84
2023-03-27T21:17:16.268Z,97648.94
2023-03-27T21:20:18.505Z,97648.38
2023-03-27T21:23:21.045Z,97644.13
2023-03-27T21:26:23.127Z,97649.44
2023-03-27T21:29:26.288Z,97653.13
2023-03-27T21:32:28.299Z,97656.00
2023-03-27T21:35:30.398Z,97653.38
2023-03-27T21:38:32.494Z,97644.38
2023-03-27T21:41:34.787Z,97671.78
2023-03-27T21:44:36.952Z,97655.03
2023-03-27T21:47:47.214Z,97650.72
2023-03-27T21:50:49.941Z,97674.97
2023-03-27T21:53:53.388Z,97678.50
2023-03-27T21:56:55.461Z,97686.66
2023-03-27T21:59:58.083Z,97676.91
2023-03-27T22:03:00.272Z,97674.91
2023-03-27T22:06:12.578Z,97661.50
2023-03-27T22:09:17.150Z,97653.50
2023-03-27T22:12:19.867Z,97684.69
2023-03-27T22:15:21.952Z,97694.94
2023-03-27T22:18:24.953Z,97671.41
2023-03-27T22:21:29.072Z,97679.88
2023-03-27T22:24:31.138Z,97675.81
2023-03-27T22:27:33.463Z,97681.53
2023-03-27T22:30:36.034Z,97688.50
2023-03-27T22:33:38.535Z,97696.28
2023-03-27T22:36:40.983Z,97693.53
2023-03-27T22:39:43.292Z,97689.69
2023-03-27T22:42:45.344Z,97687.06
2023-03-27T22:45:47.346Z,97551.97
2023-03-27T22:48:59.051Z,97687.34
2023-03-27T22:52:01.372Z,97694.13
2023-03-27T22:55:03.463Z,97688.94
2023-03-27T22:58:05.568Z,97685.69
2023-03-27T23:01:07.777Z,97694.19
2023-03-27T23:04:09.840Z,97696.28
2023-03-27T23:07:12.265Z,97704.59
2023-03-27T23:10:14.295Z,97715.38
2023-03-27T23:13:16.250Z,97709.91
2023-03-27T23:16:18.362Z,97720.41
2023-03-27T23:19:20.469Z,97718.50
2023-03-27T23:22:22.519Z,97714.91
2023-03-27T23:25:24.677Z,97724.03
2023-03-27T23:28:30.585Z,97715.38
2023-03-27T23:31:32.712Z,97714.63
2023-03-27T23:34:34.806Z,97699.94
2023-03-27T23:37:36.933Z,97727.28
2023-03-27T23:40:39.055Z,97729.91
2023-03-27T23:43:41.500Z,97697.88
2023-03-27T23:46:43.508Z,97734.00
2023-03-27T23:49:45.879Z,97704.28
2023-03-27T23:52:47.901Z,97737.25
2023-03-27T23:55:49.884Z,97725.19
2023-03-27T23:58:51.908Z,97728.56
